AKDT,Max TemperatureF,Mean TemperatureF,Min TemperatureF,Max Dew PointF,MeanDew PointF,Min DewpointF,Max Humidity, Mean Humidity, Min Humidity, Max Sea Level PressureIn, Mean Sea Level PressureIn, Min Sea Level PressureIn, Max VisibilityMiles, Mean VisibilityMiles, Min VisibilityMiles, Max Wind SpeedMPH, Mean Wind SpeedMPH, Max Gust SpeedMPH,PrecipitationIn, CloudCover, Events, WindDirDegrees
2011-10-1,56,48,39,43,40,36,0,0,0,30.06,29.96,29.87,10,10,10,10,2,14,T,4,Rain,334
2011-10-2,58,50,42,42,40,33,0,0,0,29.97,29.91,29.74,10,10,10,10,5,15,0.00,2,,110
2011-10-3,59,49,39,46,39,32,0,0,0,29.71,29.46,29.16,10,10,6,12,5,18,0.03,6,Rain,72
2011-10-4,56,53,49,48,45,41,0,0,0,29.51,29.41,29.18,10,10,5,32,17,47,0.26,5,Rain,136
2011-10-5,60,52,44,45,43,39,0,0,0,29.81,29.67,29.52,10,10,10,12,6,14,0.00,1,,321
2011-10-6,50,45,39,48,44,37,0,0,0,29.96,29.90,29.83,10,10,10,7,2,10,0.09,7,Rain,147
2011-10-7,54,48,41,48,46,39,0,0,0,30.14,30.06,29.96,10,10,6,9,3,14,0.04,7,Rain,160
2011-10-8,52,49,46,49,44,40,0,0,0,30.01,29.44,29.22,10,8,2,23,13,39,0.80,8,Rain,125
2011-10-9,53,50,47,48,44,41,0,0,0,29.82,29.71,29.43,10,10,2,14,6,23,0.04,7,Rain,169
2011-10-10,55,51,47,43,38,34,0,0,0,29.62,29.34,29.19,10,10,10,15,8,22,0.01,8,Rain,97
2011-10-11,53,50,48,50,46,42,97,82,69,29.56,29.34,29.20,10,9,4,18,10,28,0.42,8,Rain,127
2011-10-12,51,50,48,50,47,45,96,91,83,30.11,29.83,29.57,10,8,2,16,11,30,0.74,8,Rain,155
2011-10-13,51,46,37,47,44,36,100,90,77,30.14,30.13,30.11,10,9,2,14,8,22,0.44,7,Rain,135
2011-10-14,46,40,33,42,36,30,100,94,79,30.16,30.14,30.11,10,5,0,6,1,,0.00,4,Fog,120
2011-10-15,46,44,42,41,40,39,89,86,81,30.12,30.09,30.02,10,10,6,16,7,23,0.34,8,Rain,119
2011-10-16,48,45,44,45,44,41,100,92,86,30.01,29.96,29.89,10,8,2,18,12,25,0.70,8,Rain,124
2011-10-17,52,50,48,51,49,45,0,0,0,30.04,29.96,29.89,10,7,3,18,14,28,0.26,8,Rain,147
2011-10-18,52,52,51,52,49,45,0,0,0,30.01,29.96,29.91,10,8,2,22,11,37,1.13,7,Rain,165
2011-10-19,52,49,45,45,43,38,0,0,0,30.03,29.91,29.86,10,10,9,9,4,15,0.03,7,Rain,201
2011-10-20,48,43,37,43,39,33,0,0,0,30.07,30.02,29.80,10,9,4,12,3,15,0.21,6,Rain,118
2011-10-21,51,46,41,46,42,32,0,0,0,29.78,29.63,29.45,10,9,5,20,9,30,0.45,8,Rain,141
2011-10-22,51,49,46,47,45,42,0,0,0,29.86,29.72,29.63,10,9,4,20,11,31,0.41,7,Rain,167
2011-10-23,50,47,44,45,43,41,0,0,0,29.98,29.92,29.87,10,9,2,14,8,22,0.38,8,Rain,190
2011-10-24,49,44,39,44,42,37,0,0,0,30.36,30.14,29.98,10,9,2,8,2,10,0.04,6,Rain,160
2011-10-25,48,45,41,45,44,39,0,0,0,30.36,30.14,29.62,10,8,3,26,11,38,0.20,8,Rain,142
2011-10-26,49,46,43,46,40,36,0,0,0,30.10,29.81,29.56,10,9,3,26,14,43,0.15,6,Rain,228
2011-10-27,49,47,44,43,39,35,0,0,0,30.12,29.85,29.17,10,9,4,22,8,31,0.08,8,Rain,139
2011-10-28,49,46,43,45,41,37,0,0,0,29.77,29.39,29.05,10,9,5,47,18,60,0.46,7,Rain,185
2011-10-29,49,47,45,47,44,39,0,0,0,29.80,29.68,29.56,10,6,2,26,14,43,1.81,8,Rain,166
2011-10-30,49,44,39,45,41,37,0,0,0,30.01,29.72,29.60,10,9,2,15,6,29,0.67,7,Rain,204
2011-10-31,50,45,39,43,38,34,0,0,0,30.36,30.26,30.05,10,10,10,9,3,20,T,6,Rain,229